Ana Sayfa
METAR-TAF:

METAR-TAF

Havaalanları :

Maré, Yeni Kaledonya

Enlem: 21-28-53S, Boylam: 168-02-15E, yükseklik: 42 m

METAR: eksik

Saat: 00:55 (13:55 UTC)

Tahmin

Rapor saat 11:00 UTC de 2 saat ve 55 dakika önce yapıldı.
Ayın 21'si saat 12 UTC'den ayın 22'si saat 12 UTC'ye kadar geçerli Tahmin
Rüzgar değişken yönden 2 kt
Görüş mesafesi 10 km veya daha fazla
3500 ft yükseklikte az bulutlu
4000 ft yükseklikte parçalı bulutlu
Olasılık 30% :
Geçici
ayın 21'si saat 12 UTC'den ayın 21'si saat 21 UTC'ye kadar
sağanak yağmurlar,

TAF: NWWR 211100Z 2112/2212 VRB02KT 9999 FEW035 SCT040 PROB30 TEMPO 2112/2121 SHRA

4.000'den fazla havaalanı için hava durumu gözlemleri ve tahminleri (METAR ve TAF raporları).

Kullanılabilir istasyonlar harita üzerinde sarı ve kırmızı noktalarla gösterilir.

İstasyonun adını görmek için fareyi noktanın üzerinde gezdirin.

Sonrasında hava gözlem ve tahminlerini görmek için tıklayın.

Haritayı değiştirmek için: yaklaştırmak için siyah artı işaretli yeşil düğmeye ve uzaklaştırmak için de eksi işaretli düğmeye hızla tıklayın; bitişik haritalar için yeşil okları kullanın.


METAR-TAF: